Terminal Aerodrome Forecast
Issued by NWS Spokane, WA

Home | Current Version | Previous Version | Text Only | Print | Product List | Glossary On
Versions: 1 2 3 4 5 6 7 8 9 10 11 12 13 14 15 16 17 18 19
000
FTUS46 KOTX 252150 AAA
TAFLWS
TAF AMD
KLWS 252150Z 2522/2618 20026G30KT P6SM SCT060 BKN070 OVC100
     FM260000 21019G27KT P6SM -SHRA OVC050
     FM260200 26010KT P6SM VCSH SCT050 BKN100
     FM261300 27005KT P6SM SCT200=

USA.gov is the U.S. government's official web portal to all federal, state and local government web resources and services.